Baltic Marshall — C4KD2 — position and weather

sailwx.info

Track history (hours):
 
Tides and Currents Weather Stations Pressure Air Temp Water Temp Dewpoint Dewpoint Depression Visibility Wind Speed Wind Dir Waves Ship Positions

Baltic Marshall

Last reported at 2014-Jul-24 19:33 UTC. Time now 2014-Jul-24 20:00 UTC.
Position N 56°07' E 006°59'.

Length 183 m; draft 6.6 m.

Type: Tanker. MMSI: 212118000.

Date/timePositionNaut miles runAvg speedWind from/ knotsBaromVisibWave heightAir tempDewpointWater temp
2014-Jul-24 19:33N 56°07' E 006°59'2920.4
2014-Jul-24 18:06N 55°42' E 006°33'4 7.3
2014-Jul-24 17:33N 55°45' E 006°36'2017.0
2014-Jul-24 16:22N 55°28' E 006°18'8 9.1
2014-Jul-24 15:33N 55°22' E 006°10'1313.0
2014-Jul-24 14:32N 55°10' E 005°59'1211.9
2014-Jul-24 13:32N 55°00' E 005°49'1313.3
2014-Jul-24 12:33N 54°49' E 005°37'1313.2
2014-Jul-24 11:32N 54°37' E 005°25'1313.2
2014-Jul-24 10:34N 54°26' E 005°15'1313.3
2014-Jul-24 09:34N 54°14' E 005°04'1313.3
2014-Jul-24 08:34N 54°04' E 004°49'1313.2
2014-Jul-24 07:33N 53°55' E 004°34'1313.4
2014-Jul-24 06:33N 53°45' E 004°18'1413.6
2014-Jul-24 05:33N 53°36' E 003°60'1313.3
2014-Jul-24 04:33N 53°27' E 003°44'1313.5
2014-Jul-24 03:34N 53°15' E 003°35'1413.8
2014-Jul-24 02:34N 53°02' E 003°26'1414.0
2014-Jul-24 01:33N 52°49' E 003°19'1414.4
2014-Jul-24 00:33N 52°35' E 003°15'1414.4
2014-Jul-23 23:33N 52°20' E 003°11'1414.0
2014-Jul-23 22:33N 52°07' E 003°06'1313.2
2014-Jul-23 21:34N 51°54' E 003°05'1212.1
2014-Jul-23 20:34N 51°43' E 003°15'1111.5
2014-Jul-23 19:34N 51°34' E 003°25'10 9.8
2014-Jul-23 18:33N 51°26' E 003°35'6 5.4
2014-Jul-23 17:31N 51°25' E 003°44'0 0.0
2014-Jul-23 16:31N 51°25' E 003°44'0 0.0
2014-Jul-23 15:31N 51°25' E 003°44'0 0.0
2014-Jul-23 14:31N 51°25' E 003°44'0 0.0
2014-Jul-23 13:31N 51°25' E 003°44'0 0.0
2014-Jul-23 12:31N 51°25' E 003°44'0 0.0
2014-Jul-23 11:31N 51°25' E 003°44'0 0.0
2014-Jul-23 10:31N 51°25' E 003°44'0 0.0
2014-Jul-23 09:31N 51°25' E 003°44'0 0.0
2014-Jul-23 08:31N 51°25' E 003°44'0 0.0
2014-Jul-23 07:31N 51°25' E 003°44'0 0.0
2014-Jul-23 06:31N 51°25' E 003°44'0 0.0
2014-Jul-23 05:31N 51°25' E 003°44'0 0.0
2014-Jul-23 04:31N 51°25' E 003°44'0 0.0
2014-Jul-23 03:25N 51°25' E 003°44'0 0.0
2014-Jul-23 02:31N 51°25' E 003°44'0 0.0
2014-Jul-23 01:31N 51°25' E 003°44'0 0.0
2014-Jul-23 00:31N 51°25' E 003°44'0 0.0
2014-Jul-22 23:31N 51°25' E 003°44'0 0.0
2014-Jul-22 22:31N 51°25' E 003°44'0 0.0
2014-Jul-22 21:31N 51°25' E 003°44'0 0.0
2014-Jul-22 20:31N 51°25' E 003°44'0 0.0
2014-Jul-22 19:31N 51°25' E 003°44'0 0.0
2014-Jul-22 18:31N 51°25' E 003°44'0 0.0
2014-Jul-22 17:31N 51°25' E 003°44'0 0.0
2014-Jul-22 16:31N 51°25' E 003°44'0 0.0
2014-Jul-22 15:31N 51°25' E 003°44'0 0.0
2014-Jul-22 14:31N 51°25' E 003°44'0 0.0
2014-Jul-22 13:28N 51°25' E 003°44'0 0.0
2014-Jul-22 12:31N 51°25' E 003°44'0 0.0
2014-Jul-22 11:31N 51°25' E 003°44'0 0.0
2014-Jul-22 10:31N 51°25' E 003°44'0 0.0
2014-Jul-22 09:31N 51°25' E 003°44'0 0.0
2014-Jul-22 08:31N 51°25' E 003°44'0 0.0
2014-Jul-22 07:31N 51°25' E 003°44'0 0.0
2014-Jul-22 06:31N 51°25' E 003°44'0 0.0
2014-Jul-22 05:31N 51°25' E 003°44'0 0.0
2014-Jul-22 04:31N 51°25' E 003°44'0 0.0
2014-Jul-22 03:31N 51°25' E 003°44'0 0.0
2014-Jul-22 02:31N 51°25' E 003°44'0 0.0
2014-Jul-22 01:31N 51°25' E 003°44'0 0.0
2014-Jul-22 00:31N 51°25' E 003°44'0 0.0
2014-Jul-21 23:31N 51°25' E 003°44'0 0.0
2014-Jul-21 22:31N 51°25' E 003°44'0 0.0
2014-Jul-21 21:33N 51°25' E 003°44'3 3.3
2014-Jul-21 20:34N 51°26' E 003°39'2 9.6
2014-Jul-21 20:18N 51°26' E 003°35'1114.2
2014-Jul-21 19:33N 51°24' E 003°19'1313.4
2014-Jul-21 18:33N 51°22' E 002°57'1010.1
2014-Jul-21 17:33N 51°25' E 002°42'3 2.8
2014-Jul-21 16:22N 51°27' E 002°38'0 0.0
2014-Jul-21 15:28N 51°27' E 002°38'0 0.0
2014-Jul-21 14:31N 51°27' E 002°38'0 0.0
2014-Jul-21 13:33N 51°27' E 002°38'0 0.0
2014-Jul-21 12:34N 51°27' E 002°38'0 0.0
2014-Jul-21 11:31N 51°27' E 002°38'0 0.1
2014-Jul-21 10:28N 51°27' E 002°38'0 0.0
2014-Jul-21 09:33N 51°27' E 002°38'0 0.0
2014-Jul-21 08:31N 51°27' E 002°38'0 0.0
2014-Jul-21 07:30N 51°27' E 002°38'0 0.1
2014-Jul-21 06:31N 51°27' E 002°38'0 0.0
2014-Jul-21 05:22N 51°27' E 002°38'0 0.1
2014-Jul-21 04:18N 51°27' E 002°38'0 0.0
2014-Jul-21 03:33N 51°27' E 002°38'0 0.0
2014-Jul-21 02:33N 51°27' E 002°38'0 0.0
2014-Jul-21 01:34N 51°27' E 002°38'0 0.1
2014-Jul-21 00:33N 51°27' E 002°38'0 0.1
2014-Jul-20 23:13N 51°27' E 002°38'0 0.0
2014-Jul-20 22:31N 51°27' E 002°38'0 0.0
2014-Jul-20 21:34N 51°27' E 002°38'0 0.0
2014-Jul-20 20:33N 51°27' E 002°38'0 0.0
2014-Jul-20 19:25N 51°27' E 002°38'0 0.0
2014-Jul-20 18:22N 51°27' E 002°38'0 0.0
2014-Jul-20 17:33N 51°27' E 002°38'0 0.1
2014-Jul-20 16:31N 51°27' E 002°38'0 0.0
2014-Jul-20 15:22N 51°27' E 002°38'0 0.0
2014-Jul-20 14:31N 51°27' E 002°38'0 0.0
2014-Jul-20 13:21N 51°27' E 002°38'0 0.1
2014-Jul-20 12:27N 51°27' E 002°38'0 0.2
2014-Jul-20 11:28N 51°27' E 002°38'0 0.0
2014-Jul-20 10:22N 51°27' E 002°38'0 0.0
2014-Jul-20 09:33N 51°27' E 002°38'0 0.0
2014-Jul-20 08:33N 51°27' E 002°38'0 0.0
2014-Jul-20 07:33N 51°27' E 002°38'0 0.0
2014-Jul-20 06:31N 51°27' E 002°38'0 0.0
2014-Jul-20 05:31N 51°27' E 002°38'0 0.1
2014-Jul-20 04:34N 51°27' E 002°38'0 0.1
2014-Jul-20 03:33N 51°27' E 002°38'0 0.0
2014-Jul-20 02:31N 51°27' E 002°38'0 0.0
2014-Jul-20 01:34N 51°27' E 002°38'0 0.0
2014-Jul-20 00:33N 51°27' E 002°38'0 0.0
2014-Jul-19 23:33N 51°27' E 002°38'0 0.1
2014-Jul-19 22:33N 51°27' E 002°38'0 0.1
2014-Jul-19 21:33N 51°27' E 002°38'0 0.4
2014-Jul-19 20:24N 51°27' E 002°38'0 0.0
2014-Jul-19 19:27N 51°27' E 002°38'0 0.0
2014-Jul-19 18:33N 51°27' E 002°38'0 0.0
2014-Jul-19 17:33N 51°27' E 002°38'0 0.0
2014-Jul-19 16:31N 51°27' E 002°38'0 0.1
2014-Jul-19 15:30N 51°27' E 002°37'0 0.0
2014-Jul-19 14:31N 51°27' E 002°37'0 0.0
2014-Jul-19 13:31N 51°27' E 002°37'0 0.0
2014-Jul-19 12:21N 51°27' E 002°37'0 0.0
2014-Jul-19 11:30N 51°27' E 002°37'0 0.0
2014-Jul-19 10:24N 51°27' E 002°37'0 0.1
2014-Jul-19 09:33N 51°27' E 002°37'0 0.1
2014-Jul-19 08:33N 51°27' E 002°38'0 0.0
2014-Jul-19 07:31N 51°27' E 002°38'0 0.0
2014-Jul-19 06:22N 51°27' E 002°38'0 0.1
2014-Jul-19 05:30N 51°27' E 002°38'0 0.0
2014-Jul-19 04:33N 51°27' E 002°38'0 0.2
2014-Jul-19 03:30N 51°27' E 002°37'0 0.1
2014-Jul-19 02:33N 51°26' E 002°37'0 0.0
2014-Jul-19 01:33N 51°27' E 002°37'0 0.0
2014-Jul-19 00:33N 51°27' E 002°37'0 0.0
2014-Jul-18 23:33N 51°27' E 002°37'0 0.2
2014-Jul-18 22:34N 51°27' E 002°38'0 0.1
2014-Jul-18 21:33N 51°27' E 002°38'0 0.1
2014-Jul-18 20:33N 51°27' E 002°38'0 0.0
2014-Jul-18 19:31N 51°27' E 002°38'0 0.0
2014-Jul-18 18:24N 51°27' E 002°38'0 0.0
2014-Jul-18 17:21N 51°27' E 002°38'0 0.0
2014-Jul-18 16:31N 51°27' E 002°38'0 0.2
2014-Jul-18 15:13N 51°26' E 002°37'0 0.0
2014-Jul-18 14:28N 51°26' E 002°37'0 0.0
2014-Jul-18 13:31N 51°26' E 002°37'0 0.0
2014-Jul-18 12:31N 51°26' E 002°37'0 0.0
2014-Jul-18 11:31N 51°26' E 002°37'0 0.0
2014-Jul-18 10:25N 51°27' E 002°37'0 0.1
2014-Jul-18 09:33N 51°27' E 002°37'0 0.1
2014-Jul-18 08:33N 51°27' E 002°37'0 0.1
2014-Jul-18 07:33N 51°27' E 002°38'0 0.0
2014-Jul-18 06:33N 51°27' E 002°38'0 0.0
2014-Jul-18 05:30N 51°27' E 002°38'0 0.0
2014-Jul-18 04:30N 51°27' E 002°38'0 0.0
2014-Jul-18 03:33N 51°27' E 002°38'0 0.2
2014-Jul-18 02:33N 51°26' E 002°37'0 0.0
2014-Jul-18 01:33N 51°26' E 002°37'0 0.0
2014-Jul-18 00:25N 51°26' E 002°37'0 0.0
2014-Jul-17 23:33N 51°26' E 002°37'0 0.0
2014-Jul-17 22:24N 51°27' E 002°37'0 0.0
2014-Jul-17 21:31N 51°27' E 002°37'0 0.0
2014-Jul-17 20:33N 51°27' E 002°37'0 0.2
2014-Jul-17 19:33N 51°27' E 002°37'0 0.0
2014-Jul-17 18:33N 51°27' E 002°38'0 0.0
2014-Jul-17 17:33N 51°27' E 002°38'0 0.0
2014-Jul-17 16:30N 51°27' E 002°38'0 0.0
2014-Jul-17 15:34N 51°27' E 002°38'0 0.2
2014-Jul-17 14:34N 51°26' E 002°37'0 0.1
2014-Jul-17 13:33N 51°26' E 002°37'0 0.0
2014-Jul-17 12:30N 51°26' E 002°37'0 0.0
2014-Jul-17 11:34N 51°27' E 002°37'0 0.0
2014-Jul-17 10:31N 51°27' E 002°37'0 0.1
2014-Jul-17 09:31N 51°27' E 002°37'0 0.1
2014-Jul-17 08:30N 51°27' E 002°37'0 0.1
2014-Jul-17 07:09N 51°27' E 002°38'0 0.0
2014-Jul-17 06:30N 51°27' E 002°38'0 0.0
2014-Jul-17 05:16N 51°27' E 002°38'0 0.0
2014-Jul-17 04:16N 51°27' E 002°38'0 0.0
2014-Jul-17 03:28N 51°27' E 002°38'0 0.0
2014-Jul-17 02:25N 51°27' E 002°38'0 0.2
2014-Jul-17 01:31N 51°26' E 002°37'0 0.1
2014-Jul-17 00:33N 51°27' E 002°37'0 0.0
2014-Jul-16 23:28N 51°27' E 002°37'0 0.1
2014-Jul-16 22:28N 51°26' E 002°37'0 0.1
2014-Jul-16 21:33N 51°27' E 002°37'0 0.2
2014-Jul-16 20:33N 51°27' E 002°38'0 0.0
2014-Jul-16 19:34N 51°27' E 002°38'0 0.0
2014-Jul-16 18:34N 51°27' E 002°38'0 0.0
2014-Jul-16 17:30N 51°27' E 002°38'0 0.0
2014-Jul-16 16:33N 51°27' E 002°38'0 0.0
2014-Jul-16 15:33N 51°27' E 002°38'0 0.0
2014-Jul-16 14:33N 51°27' E 002°38'0 0.1
2014-Jul-16 13:16N 51°26' E 002°37'0 0.1
2014-Jul-16 12:30N 51°27' E 002°37'0 0.0
2014-Jul-16 11:30N 51°26' E 002°37'0 0.0
2014-Jul-16 10:33N 51°26' E 002°37'0 0.0
2014-Jul-16 09:28N 51°26' E 002°37'0 0.1
2014-Jul-16 08:31N 51°27' E 002°37'0 0.2
2014-Jul-16 07:33N 51°27' E 002°37'0 0.0
2014-Jul-16 06:21N 51°27' E 002°38'0 0.0
2014-Jul-16 05:33N 51°27' E 002°38'0 0.0
2014-Jul-16 04:33N 51°27' E 002°38'0 0.0
2014-Jul-16 03:19N 51°27' E 002°38'0 0.0
2014-Jul-16 02:31N 51°27' E 002°38'0 0.0
2014-Jul-16 01:18N 51°27' E 002°38'0 0.2
2014-Jul-16 00:33N 51°26' E 002°37'0 0.0
2014-Jul-15 22:13N 51°27' E 002°37'0 0.0
2014-Jul-15 21:28N 51°27' E 002°37'0 0.2
2014-Jul-15 20:22N 51°27' E 002°37'0 0.1
2014-Jul-15 19:33N 51°27' E 002°38'0 0.0
2014-Jul-15 18:33N 51°27' E 002°38'0 0.0
2014-Jul-15 17:28N 51°27' E 002°38'0 0.0
2014-Jul-15 16:33N 51°27' E 002°38'0 0.0
2014-Jul-15 15:33N 51°27' E 002°38'0 0.0
2014-Jul-15 14:24N 51°27' E 002°38'0 0.0
2014-Jul-15 13:27N 51°27' E 002°38'0 0.2
2014-Jul-15 12:30N 51°27' E 002°37'0 0.1
2014-Jul-15 11:33N 51°27' E 002°37'0 0.0
2014-Jul-15 10:27N 51°27' E 002°37'0 0.0
2014-Jul-15 09:33N 51°27' E 002°37'0 0.2
2014-Jul-15 08:33N 51°27' E 002°38'0 0.1
2014-Jul-15 07:33N 51°27' E 002°38'0 0.0
2014-Jul-15 06:27N 51°27' E 002°38'0 0.0
2014-Jul-15 05:30N 51°27' E 002°38'0 0.0
2014-Jul-15 04:28N 51°27' E 002°38'0 0.0
2014-Jul-15 03:15N 51°27' E 002°38'0 0.0
2014-Jul-15 02:33N 51°27' E 002°38'0 0.0
2014-Jul-15 01:33N 51°27' E 002°38'0 0.0
2014-Jul-15 00:31N 51°27' E 002°38'0 0.2
2014-Jul-14 23:34N 51°26' E 002°37'0 0.1
2014-Jul-14 22:30N 51°27' E 002°37'0 0.1
2014-Jul-14 21:28N 51°26' E 002°38'0 0.2
2014-Jul-14 20:27N 51°27' E 002°38'0 0.1
2014-Jul-14 19:33N 51°27' E 002°38'  
Track history (hours):
 
Tides and Currents Weather Stations Pressure Air Temp Water Temp Dewpoint Dewpoint Depression Visibility Wind Speed Wind Dir Waves Ship Positions

Baltic Marshall

Last reported at 2014-Jul-24 19:33 UTC. Time now 2014-Jul-24 20:00 UTC.
Position N 56°07' E 006°59'.

Length 183 m; draft 6.6 m.

Type: Tanker. MMSI: 212118000.

Date/timePositionNaut miles runAvg speedWind from/ knotsBaromVisibWave heightAir tempDewpointWater temp
2014-Jul-24 19:33N 56°07' E 006°59'2920.4
2014-Jul-24 18:06N 55°42' E 006°33'4 7.3
2014-Jul-24 17:33N 55°45' E 006°36'2017.0
2014-Jul-24 16:22N 55°28' E 006°18'8 9.1
2014-Jul-24 15:33N 55°22' E 006°10'1313.0
2014-Jul-24 14:32N 55°10' E 005°59'1211.9
2014-Jul-24 13:32N 55°00' E 005°49'1313.3
2014-Jul-24 12:33N 54°49' E 005°37'1313.2
2014-Jul-24 11:32N 54°37' E 005°25'1313.2
2014-Jul-24 10:34N 54°26' E 005°15'1313.3
2014-Jul-24 09:34N 54°14' E 005°04'1313.3
2014-Jul-24 08:34N 54°04' E 004°49'1313.2
2014-Jul-24 07:33N 53°55' E 004°34'1313.4
2014-Jul-24 06:33N 53°45' E 004°18'1413.6
2014-Jul-24 05:33N 53°36' E 003°60'1313.3
2014-Jul-24 04:33N 53°27' E 003°44'1313.5
2014-Jul-24 03:34N 53°15' E 003°35'1413.8
2014-Jul-24 02:34N 53°02' E 003°26'1414.0
2014-Jul-24 01:33N 52°49' E 003°19'1414.4
2014-Jul-24 00:33N 52°35' E 003°15'1414.4
2014-Jul-23 23:33N 52°20' E 003°11'1414.0
2014-Jul-23 22:33N 52°07' E 003°06'1313.2
2014-Jul-23 21:34N 51°54' E 003°05'1212.1
2014-Jul-23 20:34N 51°43' E 003°15'1111.5
2014-Jul-23 19:34N 51°34' E 003°25'10 9.8
2014-Jul-23 18:33N 51°26' E 003°35'6 5.4
2014-Jul-23 17:31N 51°25' E 003°44'0 0.0
2014-Jul-23 16:31N 51°25' E 003°44'0 0.0
2014-Jul-23 15:31N 51°25' E 003°44'0 0.0
2014-Jul-23 14:31N 51°25' E 003°44'0 0.0
2014-Jul-23 13:31N 51°25' E 003°44'0 0.0
2014-Jul-23 12:31N 51°25' E 003°44'0 0.0
2014-Jul-23 11:31N 51°25' E 003°44'0 0.0
2014-Jul-23 10:31N 51°25' E 003°44'0 0.0
2014-Jul-23 09:31N 51°25' E 003°44'0 0.0
2014-Jul-23 08:31N 51°25' E 003°44'0 0.0
2014-Jul-23 07:31N 51°25' E 003°44'0 0.0
2014-Jul-23 06:31N 51°25' E 003°44'0 0.0
2014-Jul-23 05:31N 51°25' E 003°44'0 0.0
2014-Jul-23 04:31N 51°25' E 003°44'0 0.0
2014-Jul-23 03:25N 51°25' E 003°44'0 0.0
2014-Jul-23 02:31N 51°25' E 003°44'0 0.0
2014-Jul-23 01:31N 51°25' E 003°44'0 0.0
2014-Jul-23 00:31N 51°25' E 003°44'0 0.0
2014-Jul-22 23:31N 51°25' E 003°44'0 0.0
2014-Jul-22 22:31N 51°25' E 003°44'0 0.0
2014-Jul-22 21:31N 51°25' E 003°44'0 0.0
2014-Jul-22 20:31N 51°25' E 003°44'0 0.0
2014-Jul-22 19:31N 51°25' E 003°44'0 0.0
2014-Jul-22 18:31N 51°25' E 003°44'0 0.0
2014-Jul-22 17:31N 51°25' E 003°44'0 0.0
2014-Jul-22 16:31N 51°25' E 003°44'0 0.0
2014-Jul-22 15:31N 51°25' E 003°44'0 0.0
2014-Jul-22 14:31N 51°25' E 003°44'0 0.0
2014-Jul-22 13:28N 51°25' E 003°44'0 0.0
2014-Jul-22 12:31N 51°25' E 003°44'0 0.0
2014-Jul-22 11:31N 51°25' E 003°44'0 0.0
2014-Jul-22 10:31N 51°25' E 003°44'0 0.0
2014-Jul-22 09:31N 51°25' E 003°44'0 0.0
2014-Jul-22 08:31N 51°25' E 003°44'0 0.0
2014-Jul-22 07:31N 51°25' E 003°44'0 0.0
2014-Jul-22 06:31N 51°25' E 003°44'0 0.0
2014-Jul-22 05:31N 51°25' E 003°44'0 0.0
2014-Jul-22 04:31N 51°25' E 003°44'0 0.0
2014-Jul-22 03:31N 51°25' E 003°44'0 0.0
2014-Jul-22 02:31N 51°25' E 003°44'0 0.0
2014-Jul-22 01:31N 51°25' E 003°44'0 0.0
2014-Jul-22 00:31N 51°25' E 003°44'0 0.0
2014-Jul-21 23:31N 51°25' E 003°44'0 0.0
2014-Jul-21 22:31N 51°25' E 003°44'0 0.0
2014-Jul-21 21:33N 51°25' E 003°44'3 3.3
2014-Jul-21 20:34N 51°26' E 003°39'2 9.6
2014-Jul-21 20:18N 51°26' E 003°35'1114.2
2014-Jul-21 19:33N 51°24' E 003°19'1313.4
2014-Jul-21 18:33N 51°22' E 002°57'1010.1
2014-Jul-21 17:33N 51°25' E 002°42'3 2.8
2014-Jul-21 16:22N 51°27' E 002°38'0 0.0
2014-Jul-21 15:28N 51°27' E 002°38'0 0.0
2014-Jul-21 14:31N 51°27' E 002°38'0 0.0
2014-Jul-21 13:33N 51°27' E 002°38'0 0.0
2014-Jul-21 12:34N 51°27' E 002°38'0 0.0
2014-Jul-21 11:31N 51°27' E 002°38'0 0.1
2014-Jul-21 10:28N 51°27' E 002°38'0 0.0
2014-Jul-21 09:33N 51°27' E 002°38'0 0.0
2014-Jul-21 08:31N 51°27' E 002°38'0 0.0
2014-Jul-21 07:30N 51°27' E 002°38'0 0.1
2014-Jul-21 06:31N 51°27' E 002°38'0 0.0
2014-Jul-21 05:22N 51°27' E 002°38'0 0.1
2014-Jul-21 04:18N 51°27' E 002°38'0 0.0
2014-Jul-21 03:33N 51°27' E 002°38'0 0.0
2014-Jul-21 02:33N 51°27' E 002°38'0 0.0
2014-Jul-21 01:34N 51°27' E 002°38'0 0.1
2014-Jul-21 00:33N 51°27' E 002°38'0 0.1
2014-Jul-20 23:13N 51°27' E 002°38'0 0.0
2014-Jul-20 22:31N 51°27' E 002°38'0 0.0
2014-Jul-20 21:34N 51°27' E 002°38'0 0.0
2014-Jul-20 20:33N 51°27' E 002°38'0 0.0
2014-Jul-20 19:25N 51°27' E 002°38'0 0.0
2014-Jul-20 18:22N 51°27' E 002°38'0 0.0
2014-Jul-20 17:33N 51°27' E 002°38'0 0.1
2014-Jul-20 16:31N 51°27' E 002°38'0 0.0
2014-Jul-20 15:22N 51°27' E 002°38'0 0.0
2014-Jul-20 14:31N 51°27' E 002°38'0 0.0
2014-Jul-20 13:21N 51°27' E 002°38'0 0.1
2014-Jul-20 12:27N 51°27' E 002°38'0 0.2
2014-Jul-20 11:28N 51°27' E 002°38'0 0.0
2014-Jul-20 10:22N 51°27' E 002°38'0 0.0
2014-Jul-20 09:33N 51°27' E 002°38'0 0.0
2014-Jul-20 08:33N 51°27' E 002°38'0 0.0
2014-Jul-20 07:33N 51°27' E 002°38'0 0.0
2014-Jul-20 06:31N 51°27' E 002°38'0 0.0
2014-Jul-20 05:31N 51°27' E 002°38'0 0.1
2014-Jul-20 04:34N 51°27' E 002°38'0 0.1
2014-Jul-20 03:33N 51°27' E 002°38'0 0.0
2014-Jul-20 02:31N 51°27' E 002°38'0 0.0
2014-Jul-20 01:34N 51°27' E 002°38'0 0.0
2014-Jul-20 00:33N 51°27' E 002°38'0 0.0
2014-Jul-19 23:33N 51°27' E 002°38'0 0.1
2014-Jul-19 22:33N 51°27' E 002°38'0 0.1
2014-Jul-19 21:33N 51°27' E 002°38'0 0.4
2014-Jul-19 20:24N 51°27' E 002°38'0 0.0
2014-Jul-19 19:27N 51°27' E 002°38'0 0.0
2014-Jul-19 18:33N 51°27' E 002°38'0 0.0
2014-Jul-19 17:33N 51°27' E 002°38'0 0.0
2014-Jul-19 16:31N 51°27' E 002°38'0 0.1
2014-Jul-19 15:30N 51°27' E 002°37'0 0.0
2014-Jul-19 14:31N 51°27' E 002°37'0 0.0
2014-Jul-19 13:31N 51°27' E 002°37'0 0.0
2014-Jul-19 12:21N 51°27' E 002°37'0 0.0
2014-Jul-19 11:30N 51°27' E 002°37'0 0.0
2014-Jul-19 10:24N 51°27' E 002°37'0 0.1
2014-Jul-19 09:33N 51°27' E 002°37'0 0.1
2014-Jul-19 08:33N 51°27' E 002°38'0 0.0
2014-Jul-19 07:31N 51°27' E 002°38'0 0.0
2014-Jul-19 06:22N 51°27' E 002°38'0 0.1
2014-Jul-19 05:30N 51°27' E 002°38'0 0.0
2014-Jul-19 04:33N 51°27' E 002°38'0 0.2
2014-Jul-19 03:30N 51°27' E 002°37'0 0.1
2014-Jul-19 02:33N 51°26' E 002°37'0 0.0
2014-Jul-19 01:33N 51°27' E 002°37'0 0.0
2014-Jul-19 00:33N 51°27' E 002°37'0 0.0
2014-Jul-18 23:33N 51°27' E 002°37'0 0.2
2014-Jul-18 22:34N 51°27' E 002°38'0 0.1
2014-Jul-18 21:33N 51°27' E 002°38'0 0.1
2014-Jul-18 20:33N 51°27' E 002°38'0 0.0
2014-Jul-18 19:31N 51°27' E 002°38'0 0.0
2014-Jul-18 18:24N 51°27' E 002°38'0 0.0
2014-Jul-18 17:21N 51°27' E 002°38'0 0.0
2014-Jul-18 16:31N 51°27' E 002°38'0 0.2
2014-Jul-18 15:13N 51°26' E 002°37'0 0.0
2014-Jul-18 14:28N 51°26' E 002°37'0 0.0
2014-Jul-18 13:31N 51°26' E 002°37'0 0.0
2014-Jul-18 12:31N 51°26' E 002°37'0 0.0
2014-Jul-18 11:31N 51°26' E 002°37'0 0.0
2014-Jul-18 10:25N 51°27' E 002°37'0 0.1
2014-Jul-18 09:33N 51°27' E 002°37'0 0.1
2014-Jul-18 08:33N 51°27' E 002°37'0 0.1
2014-Jul-18 07:33N 51°27' E 002°38'0 0.0
2014-Jul-18 06:33N 51°27' E 002°38'0 0.0
2014-Jul-18 05:30N 51°27' E 002°38'0 0.0
2014-Jul-18 04:30N 51°27' E 002°38'0 0.0
2014-Jul-18 03:33N 51°27' E 002°38'0 0.2
2014-Jul-18 02:33N 51°26' E 002°37'0 0.0
2014-Jul-18 01:33N 51°26' E 002°37'0 0.0
2014-Jul-18 00:25N 51°26' E 002°37'0 0.0
2014-Jul-17 23:33N 51°26' E 002°37'0 0.0
2014-Jul-17 22:24N 51°27' E 002°37'0 0.0
2014-Jul-17 21:31N 51°27' E 002°37'0 0.0
2014-Jul-17 20:33N 51°27' E 002°37'0 0.2
2014-Jul-17 19:33N 51°27' E 002°37'0 0.0
2014-Jul-17 18:33N 51°27' E 002°38'0 0.0
2014-Jul-17 17:33N 51°27' E 002°38'0 0.0
2014-Jul-17 16:30N 51°27' E 002°38'0 0.0
2014-Jul-17 15:34N 51°27' E 002°38'0 0.2
2014-Jul-17 14:34N 51°26' E 002°37'0 0.1
2014-Jul-17 13:33N 51°26' E 002°37'0 0.0
2014-Jul-17 12:30N 51°26' E 002°37'0 0.0
2014-Jul-17 11:34N 51°27' E 002°37'0 0.0
2014-Jul-17 10:31N 51°27' E 002°37'0 0.1
2014-Jul-17 09:31N 51°27' E 002°37'0 0.1
2014-Jul-17 08:30N 51°27' E 002°37'0 0.1
2014-Jul-17 07:09N 51°27' E 002°38'0 0.0
2014-Jul-17 06:30N 51°27' E 002°38'0 0.0
2014-Jul-17 05:16N 51°27' E 002°38'0 0.0
2014-Jul-17 04:16N 51°27' E 002°38'0 0.0
2014-Jul-17 03:28N 51°27' E 002°38'0 0.0
2014-Jul-17 02:25N 51°27' E 002°38'0 0.2
2014-Jul-17 01:31N 51°26' E 002°37'0 0.1
2014-Jul-17 00:33N 51°27' E 002°37'0 0.0
2014-Jul-16 23:28N 51°27' E 002°37'0 0.1
2014-Jul-16 22:28N 51°26' E 002°37'0 0.1
2014-Jul-16 21:33N 51°27' E 002°37'0 0.2
2014-Jul-16 20:33N 51°27' E 002°38'0 0.0
2014-Jul-16 19:34N 51°27' E 002°38'0 0.0
2014-Jul-16 18:34N 51°27' E 002°38'0 0.0
2014-Jul-16 17:30N 51°27' E 002°38'0 0.0
2014-Jul-16 16:33N 51°27' E 002°38'0 0.0
2014-Jul-16 15:33N 51°27' E 002°38'0 0.0
2014-Jul-16 14:33N 51°27' E 002°38'0 0.1
2014-Jul-16 13:16N 51°26' E 002°37'0 0.1
2014-Jul-16 12:30N 51°27' E 002°37'0 0.0
2014-Jul-16 11:30N 51°26' E 002°37'0 0.0
2014-Jul-16 10:33N 51°26' E 002°37'0 0.0
2014-Jul-16 09:28N 51°26' E 002°37'0 0.1
2014-Jul-16 08:31N 51°27' E 002°37'0 0.2
2014-Jul-16 07:33N 51°27' E 002°37'0 0.0
2014-Jul-16 06:21N 51°27' E 002°38'0 0.0
2014-Jul-16 05:33N 51°27' E 002°38'0 0.0
2014-Jul-16 04:33N 51°27' E 002°38'0 0.0
2014-Jul-16 03:19N 51°27' E 002°38'0 0.0
2014-Jul-16 02:31N 51°27' E 002°38'0 0.0
2014-Jul-16 01:18N 51°27' E 002°38'0 0.2
2014-Jul-16 00:33N 51°26' E 002°37'0 0.0
2014-Jul-15 22:13N 51°27' E 002°37'0 0.0
2014-Jul-15 21:28N 51°27' E 002°37'0 0.2
2014-Jul-15 20:22N 51°27' E 002°37'0 0.1
2014-Jul-15 19:33N 51°27' E 002°38'0 0.0
2014-Jul-15 18:33N 51°27' E 002°38'0 0.0
2014-Jul-15 17:28N 51°27' E 002°38'0 0.0
2014-Jul-15 16:33N 51°27' E 002°38'0 0.0
2014-Jul-15 15:33N 51°27' E 002°38'0 0.0
2014-Jul-15 14:24N 51°27' E 002°38'0 0.0
2014-Jul-15 13:27N 51°27' E 002°38'0 0.2
2014-Jul-15 12:30N 51°27' E 002°37'0 0.1
2014-Jul-15 11:33N 51°27' E 002°37'0 0.0
2014-Jul-15 10:27N 51°27' E 002°37'0 0.0
2014-Jul-15 09:33N 51°27' E 002°37'0 0.2
2014-Jul-15 08:33N 51°27' E 002°38'0 0.1
2014-Jul-15 07:33N 51°27' E 002°38'0 0.0
2014-Jul-15 06:27N 51°27' E 002°38'0 0.0
2014-Jul-15 05:30N 51°27' E 002°38'0 0.0
2014-Jul-15 04:28N 51°27' E 002°38'0 0.0
2014-Jul-15 03:15N 51°27' E 002°38'0 0.0
2014-Jul-15 02:33N 51°27' E 002°38'0 0.0
2014-Jul-15 01:33N 51°27' E 002°38'0 0.0
2014-Jul-15 00:31N 51°27' E 002°38'0 0.2
2014-Jul-14 23:34N 51°26' E 002°37'0 0.1
2014-Jul-14 22:30N 51°27' E 002°37'0 0.1
2014-Jul-14 21:28N 51°26' E 002°38'0 0.2
2014-Jul-14 20:27N 51°27' E 002°38'0 0.1
2014-Jul-14 19:33N 51°27' E 002°38'  

Dump ship's entire track history